Главная страница
METAR-TAF:

METAR-TAF

Аэропорты :

Берлевог, Норвегия

широта: 70-52N, долгота: 029-02E, высота над уровнем моря: 1 м

Текущие метеонаблюдения

Эта сводка был подготовлена 35 минут назад, в 14:20 UTC
Ветер 15 Узел от северо-западный
Температура 7°C
Влажность 93%
Давление 1014 hPa
Видимость 10 км и более

METAR: ENBV 221420Z AUTO 32015KT 9999 OVC011/// 07/06 Q1014

Время: 16:55 (14:55 UTC)

Прогноз

Эта сводка был подготовлена 21 часа и 25 минут назад, в 17:30 UTC
Прогноз действительный с 21-го 17 UTC до 21-го 23 UTC
Ветер 8 Узел от северо-северо-восточный
Видимость 10 км и более
Рассеянная облачность на высоте 1200 фута
временами
С 21-го 17 UTC до 21-го 21 UTC
Отдельные облака на высоте 1300 фута

TAF: ENBV 211730Z 2117/2123 02008KT 9999 BKN012 TEMPO 2117/2121 SCT013

Метеонаблюдения и прогнозы для более 4000 аэропортов (сводки METAR и TAF).

Имеющиеся станции представлены на карте желтыми и красными точками.

Чтобы увидеть название станции, наведите на нее мышь.

Затем щелкните, чтобы увидеть метеонаблюдения и метеопрогнозы.

Управление картой: чтобы увеличить масштаб, щелкните зеленые кнопки с черным крестиком; чтобы уменьшить масштаб, щелкните зеленую кнопку с тире; для просмотра соседних карт щелкайте зеленые стрелки.


METAR-TAF: